Time;durP1;ratioP1;P1;durP2;ratioP2;P2;SDS_P1;SDS_P2;PMS_P1;PMS_P2;Temp;Humidity;BMP_temperature;BMP_pressure;BME280_temperature;BME280_humidity;BME280_pressure;Samples;Min_cycle;Max_cycle;Signal;HPM_P1;HPM_P2
2023/07/24 00:00:19;;;;;;;3.95;1.80;;;;;;;19.60;87.12;98871.63;5043800;28;20546;-74
2023/07/24 00:02:45;;;;;;;5.68;2.10;;;;;;;19.70;86.64;98865.63;5043722;28;20041;-74
2023/07/24 00:05:10;;;;;;;4.68;2.20;;;;;;;19.69;86.69;98872.31;5043572;28;20107;-74
2023/07/24 00:07:35;;;;;;;6.10;1.65;;;;;;;19.60;86.52;98869.69;5043893;28;20102;-74
2023/07/24 00:10:01;;;;;;;5.78;2.20;;;;;;;19.63;86.91;98870.16;5043549;28;20102;-74
2023/07/24 00:12:26;;;;;;;5.57;2.20;;;;;;;19.63;86.78;98859.09;5043937;28;20676;-74
2023/07/24 00:14:52;;;;;;;4.45;2.30;;;;;;;19.63;86.88;98857.09;5043818;28;20039;-74
2023/07/24 00:17:18;;;;;;;5.70;1.80;;;;;;;19.70;86.82;98859.28;5043671;28;20051;-74
2023/07/24 00:19:43;;;;;;;5.28;2.42;;;;;;;19.70;86.50;98851.81;5043406;28;20033;-74
2023/07/24 00:22:08;;;;;;;4.80;1.93;;;;;;;19.68;86.67;98847.78;5043419;28;20115;-74
2023/07/24 00:24:34;;;;;;;2.88;1.67;;;;;;;19.59;86.66;98850.66;5043671;28;20292;-75
2023/07/24 00:26:59;;;;;;;4.55;2.63;;;;;;;19.58;87.43;98846.31;5044392;28;20040;-74
2023/07/24 00:29:24;;;;;;;6.07;2.20;;;;;;;19.55;87.47;98841.44;5043399;28;20040;-73
2023/07/24 00:31:49;;;;;;;4.63;2.30;;;;;;;19.47;87.23;98838.47;5043669;28;20254;-74
2023/07/24 00:34:15;;;;;;;3.72;1.55;;;;;;;19.56;87.91;98830.06;5043541;28;20265;-73
2023/07/24 00:36:40;;;;;;;4.63;2.25;;;;;;;19.62;87.59;98814.03;5043330;28;20033;-74
2023/07/24 00:39:06;;;;;;;4.45;1.67;;;;;;;19.62;87.84;98825.09;5043394;28;20056;-74
2023/07/24 00:41:31;;;;;;;4.43;1.75;;;;;;;19.55;87.67;98824.88;5042717;28;20043;-74
2023/07/24 00:43:56;;;;;;;8.43;1.98;;;;;;;19.60;88.29;98827.41;5043162;28;20029;-74
2023/07/24 00:46:23;;;;;;;6.60;1.97;;;;;;;19.53;87.73;98829.94;5042532;28;20095;-74
2023/07/24 00:48:48;;;;;;;5.40;2.13;;;;;;;19.48;88.26;98823.53;5042844;28;20258;-75
2023/07/24 00:51:13;;;;;;;5.53;2.55;;;;;;;19.47;88.14;98824.66;5043043;28;20044;-74
2023/07/24 00:53:39;;;;;;;3.85;1.33;;;;;;;19.48;87.68;98831.00;5043006;28;20123;-74
2023/07/24 00:56:05;;;;;;;4.00;1.83;;;;;;;19.46;88.16;98816.72;5043100;28;20040;-74
2023/07/24 00:58:30;;;;;;;4.43;1.85;;;;;;;19.38;88.35;98823.19;5042518;28;20505;-74
2023/07/24 01:00:56;;;;;;;4.57;2.03;;;;;;;19.40;88.38;98813.41;5043004;28;20115;-74
2023/07/24 01:03:35;;;;;;;4.25;1.40;;;;;;;19.30;88.48;98813.88;5042850;28;20028;-74
2023/07/24 01:06:03;;;;;;;5.70;1.48;;;;;;;19.13;88.77;98821.22;5043135;28;20073;-73
2023/07/24 01:08:29;;;;;;;5.13;1.63;;;;;;;19.17;89.30;98816.66;5042593;28;20045;-74
2023/07/24 01:10:59;;;;;;;7.15;2.25;;;;;;;19.08;89.09;98815.94;5042309;28;20040;-73
2023/07/24 01:13:28;;;;;;;2.75;1.13;;;;;;;19.13;89.23;98821.22;5040969;28;20041;-74
2023/07/24 01:16:07;;;;;;;3.08;1.30;;;;;;;19.17;88.60;98800.06;5042556;28;20040;-74
2023/07/24 01:18:36;;;;;;;2.47;1.48;;;;;;;19.14;88.41;98800.75;5042402;28;20584;-73
2023/07/24 01:21:04;;;;;;;3.05;1.45;;;;;;;19.16;88.28;98792.91;5042808;28;20094;-74
2023/07/24 01:23:54;;;;;;;4.75;1.90;;;;;;;19.17;88.29;98797.31;5042786;28;20041;-74
2023/07/24 01:26:20;;;;;;;5.47;1.55;;;;;;;19.15;88.22;98785.81;5042609;28;20039;-74
2023/07/24 01:28:46;;;;;;;3.97;2.25;;;;;;;19.20;88.25;98788.31;5042317;28;20093;-74
2023/07/24 01:31:12;;;;;;;5.28;2.45;;;;;;;19.24;87.74;98783.72;5042406;28;20048;-74
2023/07/24 01:33:37;;;;;;;3.72;1.55;;;;;;;19.09;88.19;98776.09;5042484;28;20123;-73
2023/07/24 01:36:05;;;;;;;4.72;1.75;;;;;;;19.04;88.19;98773.59;5042506;28;20128;-74
2023/07/24 01:38:34;;;;;;;6.22;2.75;;;;;;;19.06;88.43;98765.78;5041820;28;20032;-74
2023/07/24 01:41:00;;;;;;;5.90;1.60;;;;;;;19.09;88.35;98765.06;5024399;28;20040;-73
2023/07/24 01:43:29;;;;;;;5.55;1.95;;;;;;;19.01;88.91;98764.84;5042400;28;20041;-75
2023/07/24 01:45:54;;;;;;;8.52;2.25;;;;;;;19.05;88.64;98759.44;5041761;28;20742;-74
2023/07/24 01:48:20;;;;;;;3.38;1.70;;;;;;;18.99;88.61;98756.09;5042508;28;20167;-74
2023/07/24 01:50:45;;;;;;;4.95;2.08;;;;;;;19.04;88.39;98752.28;5041958;28;20044;-74
2023/07/24 01:53:11;;;;;;;4.80;2.03;;;;;;;18.93;88.62;98746.44;5042338;28;20056;-73
2023/07/24 01:55:36;;;;;;;5.43;2.00;;;;;;;19.00;88.54;98741.13;5042030;28;20261;-74
2023/07/24 01:58:01;;;;;;;3.55;1.92;;;;;;;18.96;88.97;98739.41;5042467;28;20039;-73
2023/07/24 02:00:26;;;;;;;5.40;2.55;;;;;;;19.00;88.57;98738.38;5041984;28;20052;-74
2023/07/24 02:02:52;;;;;;;3.65;1.92;;;;;;;18.94;89.22;98733.41;5042679;28;20698;-74
2023/07/24 02:05:17;;;;;;;2.80;1.52;;;;;;;18.98;88.95;98729.63;5041544;28;20048;-75
2023/07/24 02:07:43;;;;;;;4.75;2.20;;;;;;;18.86;88.81;98724.94;5041784;28;20087;-74
2023/07/24 02:10:09;;;;;;;5.33;1.93;;;;;;;18.95;89.09;98716.53;5041426;28;20039;-73
2023/07/24 02:12:34;;;;;;;4.95;2.28;;;;;;;19.05;88.57;98714.44;5041945;28;20273;-73
2023/07/24 02:14:59;;;;;;;6.77;2.27;;;;;;;19.00;88.78;98723.75;5041795;28;20032;-74
2023/07/24 02:17:25;;;;;;;7.50;3.25;;;;;;;19.02;88.30;98722.25;5041568;28;20269;-73
2023/07/24 02:19:50;;;;;;;6.30;1.83;;;;;;;19.00;88.72;98737.56;5041357;28;20051;-74
2023/07/24 02:22:15;;;;;;;4.47;1.88;;;;;;;18.90;88.78;98736.06;5041752;28;20037;-74
2023/07/24 02:24:41;;;;;;;5.67;2.33;;;;;;;18.93;89.21;98727.13;5041830;28;20394;-73
2023/07/24 02:27:06;;;;;;;4.82;2.70;;;;;;;19.02;89.05;98719.50;5044529;28;20404;-74
2023/07/24 02:29:31;;;;;;;5.53;2.35;;;;;;;18.96;88.83;98718.13;5044921;28;20537;-74
2023/07/24 02:31:58;;;;;;;4.45;1.98;;;;;;;18.95;89.12;98704.66;5046083;28;20040;-74
2023/07/24 02:34:25;;;;;;;5.70;2.50;;;;;;;18.99;88.83;98706.41;5045568;28;20045;-73
2023/07/24 02:36:52;;;;;;;5.68;2.13;;;;;;;19.05;88.24;98704.19;5045638;28;20036;-74
2023/07/24 02:39:17;;;;;;;8.50;2.53;;;;;;;19.06;88.20;98699.47;5045178;28;20037;-74
2023/07/24 02:41:43;;;;;;;7.65;2.72;;;;;;;18.95;88.62;98699.16;5045112;28;20035;-74
2023/07/24 02:44:08;;;;;;;4.93;2.00;;;;;;;18.97;88.32;98689.38;5045028;28;20041;-74
2023/07/24 02:46:33;;;;;;;5.27;2.33;;;;;;;18.99;88.17;98692.59;5045232;28;20274;-74
2023/07/24 02:48:59;;;;;;;6.10;2.30;;;;;;;18.99;88.09;98689.00;5044761;28;20262;-74
2023/07/24 02:51:24;;;;;;;7.15;2.22;;;;;;;18.93;88.70;98696.75;5045248;28;20266;-74
2023/07/24 02:53:49;;;;;;;4.90;1.90;;;;;;;19.06;88.24;98699.47;5045029;28;20025;-74
2023/07/24 02:56:14;;;;;;;5.07;2.37;;;;;;;19.10;87.60;98706.69;5045279;28;20040;-74
2023/07/24 02:58:40;;;;;;;5.28;1.92;;;;;;;19.04;88.05;98702.56;5044295;28;20443;-74
2023/07/24 03:01:06;;;;;;;8.10;2.73;;;;;;;19.11;87.73;98694.53;5044656;28;20037;-74
2023/07/24 03:03:32;;;;;;;5.55;2.22;;;;;;;19.25;87.04;98696.94;5044881;28;20258;-74
2023/07/24 03:05:58;;;;;;;4.90;2.58;;;;;;;19.21;86.87;98678.63;5044923;28;20040;-74
2023/07/24 03:08:23;;;;;;;9.57;2.20;;;;;;;19.22;87.08;98672.75;5045107;28;20574;-74
2023/07/24 03:10:48;;;;;;;7.63;2.50;;;;;;;19.30;86.48;98675.72;5044739;28;20036;-74
2023/07/24 03:13:14;;;;;;;6.40;2.55;;;;;;;19.24;86.78;98673.19;5044963;28;20056;-73
2023/07/24 03:15:39;;;;;;;15.50;3.90;;;;;;;19.25;87.57;98674.81;5044953;28;20727;-72
2023/07/24 03:18:04;;;;;;;6.57;3.13;;;;;;;19.22;88.03;98677.50;5044660;28;20262;-72
2023/07/24 03:20:29;;;;;;;4.10;2.35;;;;;;;19.05;89.08;98676.56;5044213;28;20226;-72
2023/07/24 03:22:55;;;;;;;7.80;2.70;;;;;;;18.99;89.25;98678.78;5045073;28;20029;-72
2023/07/24 03:25:20;;;;;;;6.07;2.53;;;;;;;18.78;90.03;98676.16;5044476;28;20274;-72
2023/07/24 03:27:45;;;;;;;5.20;2.33;;;;;;;18.85;90.25;98681.09;5044717;28;20316;-72
2023/07/24 03:30:11;;;;;;;8.82;3.03;;;;;;;18.85;90.67;98681.09;5044452;28;20064;-72
2023/07/24 03:32:37;;;;;;;7.78;2.17;;;;;;;18.90;90.72;98669.81;5044790;28;20099;-71
2023/07/24 03:35:03;;;;;;;8.48;3.03;;;;;;;18.84;90.63;98662.91;5044581;28;20116;-72
2023/07/24 03:37:29;;;;;;;10.82;2.90;;;;;;;18.82;90.79;98657.75;5044181;28;20048;-72
2023/07/24 03:39:54;;;;;;;7.40;2.93;;;;;;;18.85;90.68;98661.78;5044157;28;20033;-72
2023/07/24 03:42:31;;;;;;;5.40;2.53;;;;;;;18.82;90.99;98645.91;5044095;28;20885;-72
2023/07/24 03:44:57;;;;;;;7.38;2.67;;;;;;;18.74;90.96;98645.69;5044515;28;20043;-72
2023/07/24 03:47:23;;;;;;;6.25;2.38;;;;;;;18.69;91.42;98648.69;5044330;28;20041;-72
2023/07/24 03:49:48;;;;;;;6.95;3.65;;;;;;;18.81;91.44;98633.25;5043799;28;20063;-72
2023/07/24 03:52:14;;;;;;;7.72;2.70;;;;;;;18.78;91.10;98635.56;5044495;28;20676;-72
2023/07/24 03:54:39;;;;;;;7.33;2.70;;;;;;;18.71;91.04;98640.06;5044578;28;20704;-72
2023/07/24 03:57:08;;;;;;;5.63;2.33;;;;;;;18.77;91.49;98622.91;5044402;28;20273;-72
2023/07/24 03:59:33;;;;;;;6.70;3.47;;;;;;;18.78;91.17;98618.19;5042330;28;20262;-72
2023/07/24 04:02:02;;;;;;;5.85;2.55;;;;;;;18.73;90.87;98621.97;5043987;28;20032;-72
2023/07/24 04:04:27;;;;;;;7.28;3.47;;;;;;;18.74;90.93;98626.38;5043608;28;20210;-72
2023/07/24 04:06:52;;;;;;;4.97;2.50;;;;;;;18.72;91.33;98631.44;5043580;28;20120;-72
2023/07/24 04:09:17;;;;;;;10.27;4.10;;;;;;;18.67;91.20;98629.69;5043403;28;20269;-72
2023/07/24 04:11:44;;;;;;;6.35;3.22;;;;;;;18.76;91.11;98620.50;5043892;28;20033;-72
2023/07/24 04:14:09;;;;;;;7.40;2.92;;;;;;;18.82;90.53;98627.38;5043709;28;20135;-72
2023/07/24 04:16:35;;;;;;;10.25;3.10;;;;;;;18.71;90.58;98620.75;5043393;28;20550;-72
2023/07/24 04:19:00;;;;;;;5.95;2.75;;;;;;;18.73;91.06;98616.47;5043257;28;20541;-72
2023/07/24 04:21:25;;;;;;;7.38;3.33;;;;;;;18.76;90.22;98620.50;5043616;28;20056;-72
2023/07/24 04:23:51;;;;;;;7.18;3.22;;;;;;;18.74;90.35;98622.78;5043441;28;20061;-71
2023/07/24 04:26:16;;;;;;;7.07;2.47;;;;;;;18.70;91.10;98630.97;5043350;28;20033;-72
2023/07/24 04:28:41;;;;;;;7.13;3.93;;;;;;;18.81;91.17;98616.69;5042792;28;20054;-71
2023/07/24 04:31:07;;;;;;;6.22;2.45;;;;;;;18.87;90.41;98623.59;5043119;28;20274;-72
2023/07/24 04:33:32;;;;;;;10.50;4.03;;;;;;;18.97;89.76;98630.56;5043420;28;20565;-72
2023/07/24 04:35:57;;;;;;;5.28;2.85;;;;;;;18.84;90.60;98622.31;5043044;28;20262;-74
2023/07/24 04:38:23;;;;;;;6.10;2.97;;;;;;;18.72;90.55;98634.19;5042978;28;20392;-72
2023/07/24 04:40:48;;;;;;;8.17;2.37;;;;;;;18.82;90.45;98624.63;5042598;28;20539;-72
2023/07/24 04:43:13;;;;;;;6.33;2.20;;;;;;;18.87;90.41;98631.88;5043408;28;20315;-72
2023/07/24 04:45:38;;;;;;;8.20;3.23;;;;;;;18.85;90.43;98634.16;5042724;28;20783;-72
2023/07/24 04:48:04;;;;;;;6.13;2.70;;;;;;;18.78;90.26;98635.56;5042786;28;20262;-72
2023/07/24 04:50:30;;;;;;;8.63;2.40;;;;;;;18.93;89.97;98635.19;5041838;28;20040;-72
2023/07/24 04:52:55;;;;;;;7.15;3.05;;;;;;;18.96;89.27;98629.75;5042821;28;20043;-72
2023/07/24 04:55:21;;;;;;;4.78;2.17;;;;;;;18.99;89.62;98629.06;5043083;28;20025;-72
2023/07/24 04:57:47;;;;;;;4.85;2.63;;;;;;;18.93;89.67;98624.13;5042326;28;20960;-72
2023/07/24 05:00:13;;;;;;;6.25;3.35;;;;;;;18.94;89.69;98623.78;5042533;28;20029;-72
2023/07/24 05:02:38;;;;;;;6.07;2.72;;;;;;;19.06;89.64;98635.97;5042695;28;20406;-72
2023/07/24 05:05:04;;;;;;;7.53;4.13;;;;;;;19.21;88.53;98631.66;5042906;28;20037;-71
2023/07/24 05:07:29;;;;;;;7.40;3.22;;;;;;;19.24;88.22;98633.75;5042918;28;20036;-72
2023/07/24 05:09:55;;;;;;;7.32;3.40;;;;;;;19.21;88.75;98635.25;5042240;28;20033;-72
2023/07/24 05:12:20;;;;;;;10.02;3.28;;;;;;;19.16;89.07;98631.94;5042748;28;20037;-72
2023/07/24 05:14:45;;;;;;;9.07;3.58;;;;;;;19.00;90.31;98621.56;5042861;28;20065;-72
2023/07/24 05:17:11;;;;;;;6.77;2.67;;;;;;;18.86;91.68;98624.72;5042783;28;20131;-72
2023/07/24 05:19:37;;;;;;;6.30;2.47;;;;;;;18.83;91.62;98620.72;5041844;28;20249;-72
2023/07/24 05:22:02;;;;;;;5.70;3.00;;;;;;;18.76;92.01;98626.81;5043173;28;20037;-72
2023/07/24 05:24:27;;;;;;;6.25;2.83;;;;;;;18.75;92.26;98630.72;5042272;28;20045;-72
2023/07/24 05:26:52;;;;;;;8.30;3.23;;;;;;;18.77;91.89;98633.94;5043168;28;20047;-72
2023/07/24 05:29:18;;;;;;;7.87;3.20;;;;;;;18.98;91.55;98626.63;5042013;28;20339;-72
2023/07/24 05:31:44;;;;;;;9.63;3.30;;;;;;;18.99;90.88;98629.06;5042512;28;20278;-73
2023/07/24 05:34:09;;;;;;;7.60;3.08;;;;;;;19.07;91.11;98641.13;5042660;28;20029;-73
2023/07/24 05:36:34;;;;;;;6.85;2.88;;;;;;;19.12;91.01;98640.06;5042787;28;20406;-74
2023/07/24 05:39:00;;;;;;;5.78;3.20;;;;;;;19.05;90.90;98637.09;5042436;28;20033;-74
2023/07/24 05:41:25;;;;;;;7.73;3.27;;;;;;;19.15;90.78;98638.59;5042578;28;20708;-74
2023/07/24 05:43:50;;;;;;;7.17;3.63;;;;;;;19.31;90.17;98652.47;5042581;28;20254;-74
2023/07/24 05:46:15;;;;;;;15.13;4.43;;;;;;;19.25;89.92;98649.97;5042037;28;20773;-74
2023/07/24 05:48:41;;;;;;;7.57;2.70;;;;;;;19.09;90.33;98655.41;5042271;28;20297;-73
2023/07/24 05:51:06;;;;;;;7.77;2.73;;;;;;;19.17;90.46;98670.25;5042496;28;20041;-73
2023/07/24 05:53:31;;;;;;;5.78;2.70;;;;;;;19.05;90.77;98670.25;5042052;28;20273;-74
2023/07/24 05:55:59;;;;;;;7.00;2.93;;;;;;;18.95;91.02;98675.09;5042354;28;20029;-74
2023/07/24 05:58:24;;;;;;;5.05;2.20;;;;;;;18.96;90.97;98673.94;5042181;28;20261;-74
2023/07/24 06:00:49;;;;;;;9.48;4.10;;;;;;;18.97;91.38;98672.00;5041744;28;20086;-73
2023/07/24 06:03:14;;;;;;;14.57;3.90;;;;;;;19.00;91.67;98669.31;5042674;28;20128;-74
2023/07/24 06:05:40;;;;;;;6.10;2.70;;;;;;;18.81;91.34;98671.91;5041776;28;20803;-74
2023/07/24 06:08:05;;;;;;;6.32;2.97;;;;;;;18.86;91.77;98660.59;5041976;28;20112;-74
2023/07/24 06:10:30;;;;;;;6.77;3.47;;;;;;;18.88;91.47;98661.06;5041459;28;20047;-74
2023/07/24 06:12:56;;;;;;;6.80;2.37;;;;;;;18.94;91.86;98673.47;5042066;28;20272;-74
2023/07/24 06:15:21;;;;;;;7.70;3.90;;;;;;;18.95;91.26;98666.00;5042132;28;20262;-74
2023/07/24 06:17:46;;;;;;;7.70;3.33;;;;;;;19.08;90.76;98673.09;5041497;28;20064;-74
2023/07/24 06:20:11;;;;;;;9.15;3.70;;;;;;;19.00;91.55;98665.75;5041986;28;20079;-74
2023/07/24 06:22:37;;;;;;;9.43;3.90;;;;;;;18.90;91.71;98670.63;5041848;28;20049;-74
2023/07/24 06:25:02;;;;;;;9.10;3.65;;;;;;;18.88;92.28;98666.59;5041909;28;20307;-74
2023/07/24 06:27:28;;;;;;;10.93;3.80;;;;;;;19.01;92.03;98679.25;5041419;28;20029;-74
2023/07/24 06:29:53;;;;;;;10.73;4.27;;;;;;;19.09;92.10;98693.25;5041613;28;20063;-74
2023/07/24 06:32:18;;;;;;;7.67;3.97;;;;;;;19.04;92.00;98691.53;5040749;28;20258;-74
2023/07/24 06:34:43;;;;;;;9.60;3.53;;;;;;;19.14;91.57;98684.75;5041827;28;20390;-74
2023/07/24 06:37:09;;;;;;;6.17;2.83;;;;;;;19.22;90.99;98683.81;5042011;28;20274;-74
2023/07/24 06:39:34;;;;;;;10.03;3.53;;;;;;;19.18;90.86;98680.13;5041554;28;21564;-74
2023/07/24 06:41:59;;;;;;;10.50;3.75;;;;;;;19.20;91.07;98680.59;5042300;28;20270;-74
2023/07/24 06:44:25;;;;;;;7.63;3.22;;;;;;;19.25;90.47;98669.31;5041620;28;20037;-73
2023/07/24 06:46:50;;;;;;;8.07;4.23;;;;;;;19.23;88.77;98679.91;5042027;28;20025;-75
2023/07/24 06:49:15;;;;;;;12.40;3.35;;;;;;;19.19;89.20;98678.97;5041457;28;20627;-73
2023/07/24 06:51:41;;;;;;;8.10;3.53;;;;;;;19.17;88.69;98664.72;5042358;28;20025;-74
2023/07/24 06:54:06;;;;;;;9.60;3.20;;;;;;;19.30;89.20;98670.22;5042150;28;20314;-73
2023/07/24 06:56:32;;;;;;;8.03;3.43;;;;;;;19.18;88.96;98669.06;5042393;28;20064;-74
2023/07/24 06:58:57;;;;;;;6.25;3.05;;;;;;;19.22;89.18;98675.50;5041418;28;20258;-74
2023/07/24 07:01:22;;;;;;;7.90;3.58;;;;;;;19.23;89.44;98673.56;5042276;28;20102;-74
2023/07/24 07:03:48;;;;;;;8.63;3.53;;;;;;;19.23;89.03;98665.28;5041698;28;20025;-74
2023/07/24 07:06:13;;;;;;;12.30;4.53;;;;;;;19.41;88.74;98676.03;5042015;28;20060;-74
2023/07/24 07:08:39;;;;;;;7.07;3.20;;;;;;;19.43;88.00;98668.19;5041798;28;20021;-73
2023/07/24 07:11:04;;;;;;;6.28;3.03;;;;;;;19.43;87.64;98663.47;5041075;28;20029;-74
2023/07/24 07:13:29;;;;;;;7.15;3.30;;;;;;;19.58;87.60;98677.69;5045148;28;20676;-73
2023/07/24 07:15:55;;;;;;;6.18;2.80;;;;;;;19.59;87.18;98679.28;5045344;28;20401;-74
2023/07/24 07:18:20;;;;;;;7.10;2.55;;;;;;;19.70;86.75;98672.13;5044903;28;20407;-74
2023/07/24 07:20:46;;;;;;;6.77;3.50;;;;;;;19.89;86.07;98670.59;5044699;28;20069;-74
2023/07/24 07:23:11;;;;;;;10.70;3.50;;;;;;;19.92;86.10;98678.22;5045477;28;20842;-74
2023/07/24 07:25:37;;;;;;;7.35;4.30;;;;;;;19.83;85.42;98675.59;5045130;28;20067;-74
2023/07/24 07:28:02;;;;;;;6.47;3.23;;;;;;;19.82;85.82;98670.44;5044664;28;20512;-73
2023/07/24 07:30:27;;;;;;;7.68;3.53;;;;;;;19.99;86.41;98668.50;5044281;28;20258;-74
2023/07/24 07:32:53;;;;;;;6.50;2.70;;;;;;;20.05;84.79;98669.84;5043967;28;20029;-74
2023/07/24 07:35:18;;;;;;;7.23;3.27;;;;;;;19.70;84.82;98665.78;5044594;28;20242;-73
2023/07/24 07:37:43;;;;;;;8.03;3.40;;;;;;;19.66;85.21;98668.44;5045029;28;20250;-75
2023/07/24 07:40:09;;;;;;;11.93;3.83;;;;;;;19.67;85.46;98660.97;5042901;28;20273;-74
2023/07/24 07:42:34;;;;;;;7.25;3.30;;;;;;;19.62;85.02;98664.78;5044532;28;20265;-74
2023/07/24 07:44:59;;;;;;;7.72;3.17;;;;;;;19.72;85.29;98666.22;5043222;28;20033;-73
2023/07/24 07:47:25;;;;;;;7.35;2.55;;;;;;;19.66;85.12;98653.81;5044555;28;20032;-74
2023/07/24 07:49:50;;;;;;;7.97;4.13;;;;;;;19.77;85.51;98660.41;5044144;28;20033;-74
2023/07/24 07:52:17;;;;;;;8.87;3.03;;;;;;;19.77;85.01;98660.41;5044711;28;20278;-73
2023/07/24 07:54:48;;;;;;;5.13;2.45;;;;;;;19.77;85.38;98659.63;5044080;28;21483;-73
2023/07/24 07:57:14;;;;;;;6.28;3.38;;;;;;;19.90;84.86;98661.16;5044355;28;20025;-74
2023/07/24 07:59:39;;;;;;;5.25;2.63;;;;;;;19.82;84.77;98656.59;5043803;28;20496;-74
2023/07/24 08:02:04;;;;;;;6.90;3.17;;;;;;;19.79;84.37;98662.84;5044197;28;20069;-74
2023/07/24 08:04:29;;;;;;;6.95;3.47;;;;;;;19.83;83.73;98652.69;5044155;28;20079;-74
2023/07/24 08:06:55;;;;;;;5.93;2.90;;;;;;;19.94;83.52;98656.53;5043816;28;20946;-74
2023/07/24 08:09:21;;;;;;;5.87;3.20;;;;;;;19.95;83.62;98655.34;5043408;28;20258;-74
2023/07/24 08:11:47;;;;;;;5.50;2.38;;;;;;;19.89;83.27;98656.00;5043902;28;20398;-74
2023/07/24 08:14:12;;;;;;;5.95;2.63;;;;;;;19.93;83.33;98654.91;5043589;28;20037;-74
2023/07/24 08:16:38;;;;;;;6.28;2.75;;;;;;;20.14;82.52;98653.06;5043664;28;20029;-74
2023/07/24 08:19:03;;;;;;;5.78;2.33;;;;;;;20.19;82.39;98644.53;5043279;28;20138;-74
2023/07/24 08:21:29;;;;;;;5.50;2.10;;;;;;;20.21;82.15;98650.50;5043427;28;20591;-74
2023/07/24 08:23:54;;;;;;;8.60;3.43;;;;;;;20.14;81.43;98639.25;5043886;28;20036;-74
2023/07/24 08:26:19;;;;;;;5.75;2.50;;;;;;;20.04;81.86;98629.50;5043227;28;20280;-74
2023/07/24 08:28:44;;;;;;;4.43;2.40;;;;;;;20.15;81.69;98629.81;5042746;28;20055;-74
2023/07/24 08:31:10;;;;;;;7.60;2.63;;;;;;;20.35;81.43;98622.38;5042879;28;20266;-74
2023/07/24 08:33:35;;;;;;;5.40;2.58;;;;;;;20.44;80.58;98624.16;5043200;28;20032;-75
2023/07/24 08:36:07;;;;;;;5.22;2.83;;;;;;;20.35;79.70;98627.91;5043778;28;20628;-74
2023/07/24 08:38:36;;;;;;;6.03;2.40;;;;;;;20.55;79.96;98636.25;5042463;28;20563;-75
2023/07/24 08:41:01;;;;;;;7.88;2.78;;;;;;;20.47;79.48;98635.31;5042939;28;20583;-75
2023/07/24 08:43:28;;;;;;;5.35;2.20;;;;;;;20.53;78.97;98622.78;5043110;28;20041;-73
2023/07/24 08:45:54;;;;;;;5.07;2.17;;;;;;;20.67;77.99;98632.56;5042841;28;20029;-74
2023/07/24 08:48:21;;;;;;;8.98;3.00;;;;;;;20.62;77.70;98625.38;5042692;28;20068;-73
2023/07/24 08:50:49;;;;;;;6.45;2.83;;;;;;;20.60;76.98;98624.94;5042495;28;20041;-73
2023/07/24 08:53:14;;;;;;;4.47;2.03;;;;;;;20.42;77.06;98630.84;5043087;28;20412;-73
2023/07/24 08:55:41;;;;;;;6.32;3.30;;;;;;;20.55;77.00;98630.72;5042459;28;20041;-73
2023/07/24 08:58:06;;;;;;;7.68;1.80;;;;;;;20.37;77.97;98631.13;5042861;28;20730;-73
2023/07/24 09:00:32;;;;;;;3.83;1.88;;;;;;;20.30;76.93;98626.22;5041944;28;20119;-73
2023/07/24 09:02:57;;;;;;;5.55;2.05;;;;;;;20.24;77.32;98626.84;5043611;28;20036;-74
2023/07/24 09:05:23;;;;;;;8.00;1.90;;;;;;;20.48;77.01;98625.03;5042752;28;20083;-73
2023/07/24 09:07:48;;;;;;;7.25;2.15;;;;;;;20.40;75.85;98635.94;5042715;28;20040;-74
2023/07/24 09:10:14;;;;;;;3.42;1.83;;;;;;;20.37;76.00;98644.97;5042701;28;20055;-74
2023/07/24 09:12:41;;;;;;;3.38;1.95;;;;;;;20.49;74.86;98640.47;5042487;28;20032;-73
2023/07/24 09:15:07;;;;;;;5.28;2.40;;;;;;;20.56;75.16;98637.88;5042677;28;20146;-73
2023/07/24 09:17:32;;;;;;;5.97;2.08;;;;;;;20.58;75.71;98641.09;5043112;28;20036;-73
2023/07/24 09:19:58;;;;;;;4.38;1.95;;;;;;;20.40;75.94;98630.38;5042296;28;20029;-73
2023/07/24 09:22:26;;;;;;;4.80;2.00;;;;;;;20.59;75.61;98639.91;5042250;28;20021;-73
2023/07/24 09:24:54;;;;;;;6.82;2.50;;;;;;;20.54;75.10;98640.22;5042385;28;20032;-73
2023/07/24 09:27:20;;;;;;;4.38;1.85;;;;;;;20.47;75.83;98640.84;5042435;28;20048;-73
2023/07/24 09:29:45;;;;;;;5.57;1.80;;;;;;;20.43;75.25;98634.41;5041916;28;20037;-74
2023/07/24 09:32:26;;;;;;;4.18;1.67;;;;;;;20.28;75.71;98622.19;5041986;28;20047;-73
2023/07/24 09:34:53;;;;;;;4.22;2.17;;;;;;;20.43;76.03;98628.88;5042039;28;20047;-73
2023/07/24 09:37:32;;;;;;;5.32;2.35;;;;;;;20.40;75.35;98619.31;5042340;28;20636;-73
2023/07/24 09:39:58;;;;;;;4.00;1.88;;;;;;;20.38;75.12;98632.72;5041767;28;20091;-73
2023/07/24 09:42:35;;;;;;;3.92;2.03;;;;;;;20.29;75.20;98632.91;5041967;28;20059;-73
2023/07/24 09:45:02;;;;;;;4.15;1.45;;;;;;;20.40;75.70;98624.84;5042133;28;20044;-73
2023/07/24 09:47:28;;;;;;;6.00;2.17;;;;;;;20.55;75.27;98625.19;5041610;28;20561;-73
2023/07/24 09:49:53;;;;;;;3.83;1.90;;;;;;;20.75;75.06;98623.25;5041215;28;20040;-73
2023/07/24 09:52:20;;;;;;;4.38;1.65;;;;;;;20.71;75.46;98624.34;5042772;28;20538;-73
2023/07/24 09:55:06;;;;;;;4.82;2.15;;;;;;;20.72;75.24;98612.13;5042049;28;20048;-73
2023/07/24 09:57:32;;;;;;;7.28;3.30;;;;;;;20.84;75.29;98606.44;5041742;28;20040;-73
2023/07/24 09:59:58;;;;;;;5.47;1.63;;;;;;;20.76;74.74;98610.22;5041580;28;20032;-74
2023/07/24 10:02:24;;;;;;;5.57;2.38;;;;;;;20.41;75.06;98598.81;5042145;28;20079;-73
2023/07/24 10:04:50;;;;;;;5.55;2.78;;;;;;;20.77;74.83;98606.28;5041547;28;20040;-74
2023/07/24 10:07:15;;;;;;;8.95;2.42;;;;;;;20.73;75.86;98594.31;5041615;28;20028;-73
2023/07/24 10:09:43;;;;;;;6.45;3.45;;;;;;;20.94;76.21;98593.19;5041151;28;20033;-73
2023/07/24 10:12:09;;;;;;;6.10;2.67;;;;;;;20.95;76.41;98592.03;5042533;28;20067;-71
2023/07/24 10:14:35;;;;;;;7.57;3.35;;;;;;;20.87;77.11;98583.56;5041600;28;20128;-72
2023/07/24 10:17:01;;;;;;;7.55;3.65;;;;;;;20.85;76.55;98594.19;5041873;28;20029;-72
2023/07/24 10:19:36;;;;;;;6.63;3.33;;;;;;;20.63;76.83;98593.75;5041580;28;20811;-71
2023/07/24 10:22:03;;;;;;;7.68;2.90;;;;;;;20.58;76.93;98596.00;5041673;28;20045;-72
2023/07/24 10:24:29;;;;;;;8.00;3.38;;;;;;;20.71;77.07;98591.94;5041307;28;20042;-72
2023/07/24 10:26:56;;;;;;;8.88;3.88;;;;;;;20.68;77.07;98594.63;5041404;28;20037;-72
2023/07/24 10:29:25;;;;;;;8.35;3.55;;;;;;;20.77;76.95;98586.91;5039734;28;20647;-72
2023/07/24 10:31:54;;;;;;;6.30;3.40;;;;;;;20.73;76.43;98591.56;5041608;28;20120;-72
2023/07/24 10:34:20;;;;;;;8.35;4.43;;;;;;;20.88;76.24;98582.41;5041869;28;20040;-72
2023/07/24 10:36:45;;;;;;;5.25;2.72;;;;;;;21.03;75.08;98577.16;5041171;28;20041;-72
2023/07/24 10:39:21;;;;;;;8.50;4.20;;;;;;;21.15;74.21;98580.97;5041302;28;20455;-72
2023/07/24 10:41:46;;;;;;;5.35;2.65;;;;;;;21.09;74.48;98589.56;5041655;28;20045;-72
2023/07/24 10:44:11;;;;;;;5.65;2.85;;;;;;;21.08;74.42;98587.97;5041359;28;20072;-72
2023/07/24 10:46:39;;;;;;;8.52;4.93;;;;;;;21.03;73.88;98582.72;5042275;28;20033;-72
2023/07/24 10:49:05;;;;;;;6.38;3.35;;;;;;;21.00;74.41;98580.69;5045311;28;20044;-72
2023/07/24 10:51:34;;;;;;;6.20;3.15;;;;;;;21.03;74.08;98577.16;5045886;28;20401;-71
2023/07/24 10:54:00;;;;;;;8.65;3.42;;;;;;;21.28;73.18;98565.78;5045994;28;20036;-72
2023/07/24 10:56:25;;;;;;;8.18;3.72;;;;;;;21.44;71.97;98574.00;5045341;28;20444;-72
2023/07/24 10:58:50;;;;;;;6.00;2.85;;;;;;;21.37;72.04;98578.59;5045066;28;20033;-72
2023/07/24 11:01:18;;;;;;;5.00;2.47;;;;;;;21.29;71.51;98578.47;5045219;28;20470;-72
2023/07/24 11:03:43;;;;;;;5.85;2.63;;;;;;;21.24;72.03;98587.06;5044805;28;20254;-72
2023/07/24 11:06:19;;;;;;;9.63;3.65;;;;;;;21.07;72.09;98572.50;5045554;28;20040;-73
2023/07/24 11:08:52;;;;;;;5.78;2.92;;;;;;;20.98;72.30;98574.69;5044816;28;20033;-72
2023/07/24 11:11:17;;;;;;;5.72;3.00;;;;;;;20.83;72.09;98571.59;5045203;28;20036;-72
2023/07/24 11:13:43;;;;;;;6.53;3.08;;;;;;;20.68;72.79;98573.28;5045174;28;20051;-72
2023/07/24 11:16:08;;;;;;;6.27;2.93;;;;;;;20.60;73.07;98561.25;5045023;28;20040;-72
2023/07/24 11:18:44;;;;;;;5.40;3.40;;;;;;;20.75;74.08;98567.88;5043658;28;20243;-72
2023/07/24 11:21:12;;;;;;;6.15;3.33;;;;;;;21.17;74.73;98570.31;5044733;28;20021;-72
2023/07/24 11:23:37;;;;;;;6.47;2.70;;;;;;;21.31;74.89;98567.84;5044900;28;20076;-74
2023/07/24 11:26:05;;;;;;;7.70;2.47;;;;;;;21.41;75.55;98562.84;5044479;28;20131;-73
2023/07/24 11:28:39;;;;;;;5.68;2.67;;;;;;;21.22;75.51;98556.97;5044477;28;20040;-74